sensor_id;sensor_type;location;lat;lon;timestamp;P1;durP1;ratioP1;P2;durP2;ratioP2
30948;SDS011;17637;51.984;21.208;2024-02-14T00:00:44;23.35;;;12.57;;
30948;SDS011;17637;51.984;21.208;2024-02-14T00:03:16;19.23;;;10.93;;
30948;SDS011;17637;51.984;21.208;2024-02-14T00:05:48;24.40;;;13.07;;
30948;SDS011;17637;51.984;21.208;2024-02-14T00:08:20;24.88;;;13.07;;
30948;SDS011;17637;51.984;21.208;2024-02-14T00:10:52;25.38;;;13.18;;
30948;SDS011;17637;51.984;21.208;2024-02-14T00:13:24;20.70;;;12.13;;
30948;SDS011;17637;51.984;21.208;2024-02-14T00:15:56;18.85;;;11.77;;
30948;SDS011;17637;51.984;21.208;2024-02-14T00:18:28;19.92;;;12.35;;
30948;SDS011;17637;51.984;21.208;2024-02-14T00:21:01;25.23;;;14.23;;
30948;SDS011;17637;51.984;21.208;2024-02-14T00:23:32;23.90;;;13.30;;
30948;SDS011;17637;51.984;21.208;2024-02-14T00:26:04;19.73;;;11.35;;
30948;SDS011;17637;51.984;21.208;2024-02-14T00:28:36;21.67;;;12.07;;
30948;SDS011;17637;51.984;21.208;2024-02-14T00:31:08;20.00;;;12.23;;
30948;SDS011;17637;51.984;21.208;2024-02-14T00:33:40;21.98;;;11.73;;
30948;SDS011;17637;51.984;21.208;2024-02-14T00:36:13;21.15;;;11.73;;
30948;SDS011;17637;51.984;21.208;2024-02-14T00:38:45;20.73;;;12.57;;
30948;SDS011;17637;51.984;21.208;2024-02-14T00:41:16;23.42;;;12.32;;
30948;SDS011;17637;51.984;21.208;2024-02-14T00:43:48;25.48;;;11.98;;
30948;SDS011;17637;51.984;21.208;2024-02-14T00:46:20;22.85;;;12.63;;
30948;SDS011;17637;51.984;21.208;2024-02-14T00:48:52;22.73;;;12.38;;
30948;SDS011;17637;51.984;21.208;2024-02-14T00:51:26;21.55;;;12.57;;
30948;SDS011;17637;51.984;21.208;2024-02-14T00:53:58;25.02;;;13.80;;
30948;SDS011;17637;51.984;21.208;2024-02-14T00:56:30;20.85;;;13.20;;
30948;SDS011;17637;51.984;21.208;2024-02-14T00:59:01;22.45;;;12.73;;
30948;SDS011;17637;51.984;21.208;2024-02-14T01:01:33;23.25;;;11.50;;
30948;SDS011;17637;51.984;21.208;2024-02-14T01:04:05;23.60;;;12.07;;
30948;SDS011;17637;51.984;21.208;2024-02-14T01:06:38;25.45;;;13.25;;
30948;SDS011;17637;51.984;21.208;2024-02-14T01:09:10;24.90;;;12.80;;
30948;SDS011;17637;51.984;21.208;2024-02-14T01:11:42;24.73;;;12.38;;
30948;SDS011;17637;51.984;21.208;2024-02-14T01:14:14;20.88;;;12.35;;
30948;SDS011;17637;51.984;21.208;2024-02-14T01:16:46;22.10;;;13.27;;
30948;SDS011;17637;51.984;21.208;2024-02-14T01:19:18;21.23;;;12.70;;
30948;SDS011;17637;51.984;21.208;2024-02-14T01:21:51;22.02;;;12.52;;
30948;SDS011;17637;51.984;21.208;2024-02-14T01:24:23;20.38;;;11.98;;
30948;SDS011;17637;51.984;21.208;2024-02-14T01:26:58;22.33;;;11.85;;
30948;SDS011;17637;51.984;21.208;2024-02-14T01:29:30;23.27;;;12.73;;
30948;SDS011;17637;51.984;21.208;2024-02-14T01:32:02;21.75;;;13.35;;
30948;SDS011;17637;51.984;21.208;2024-02-14T01:34:35;20.90;;;12.15;;
30948;SDS011;17637;51.984;21.208;2024-02-14T01:37:08;23.23;;;12.30;;
30948;SDS011;17637;51.984;21.208;2024-02-14T01:39:41;22.65;;;13.18;;
30948;SDS011;17637;51.984;21.208;2024-02-14T01:42:13;22.23;;;11.85;;
30948;SDS011;17637;51.984;21.208;2024-02-14T01:44:45;19.92;;;11.65;;
30948;SDS011;17637;51.984;21.208;2024-02-14T01:47:16;19.77;;;11.85;;
30948;SDS011;17637;51.984;21.208;2024-02-14T01:49:50;24.52;;;13.25;;
30948;SDS011;17637;51.984;21.208;2024-02-14T01:52:22;25.67;;;12.88;;
30948;SDS011;17637;51.984;21.208;2024-02-14T01:54:54;17.13;;;11.10;;
30948;SDS011;17637;51.984;21.208;2024-02-14T01:57:26;22.52;;;12.10;;
30948;SDS011;17637;51.984;21.208;2024-02-14T02:00:00;22.90;;;11.52;;
30948;SDS011;17637;51.984;21.208;2024-02-14T02:05:12;18.45;;;13.10;;
30948;SDS011;17637;51.984;21.208;2024-02-14T02:07:47;21.48;;;11.63;;
30948;SDS011;17637;51.984;21.208;2024-02-14T02:10:20;21.65;;;12.85;;
30948;SDS011;17637;51.984;21.208;2024-02-14T02:12:59;20.83;;;12.35;;
30948;SDS011;17637;51.984;21.208;2024-02-14T02:15:31;21.13;;;13.35;;
30948;SDS011;17637;51.984;21.208;2024-02-14T02:18:03;21.40;;;13.20;;
30948;SDS011;17637;51.984;21.208;2024-02-14T02:20:37;26.75;;;14.48;;
30948;SDS011;17637;51.984;21.208;2024-02-14T02:23:12;28.98;;;15.00;;
30948;SDS011;17637;51.984;21.208;2024-02-14T02:25:47;25.95;;;16.38;;
30948;SDS011;17637;51.984;21.208;2024-02-14T02:28:19;28.65;;;15.02;;
30948;SDS011;17637;51.984;21.208;2024-02-14T02:30:51;28.33;;;14.70;;
30948;SDS011;17637;51.984;21.208;2024-02-14T02:33:25;26.15;;;14.13;;
30948;SDS011;17637;51.984;21.208;2024-02-14T02:35:58;27.52;;;14.07;;
30948;SDS011;17637;51.984;21.208;2024-02-14T02:38:30;23.77;;;13.88;;
30948;SDS011;17637;51.984;21.208;2024-02-14T02:41:02;23.73;;;14.80;;
30948;SDS011;17637;51.984;21.208;2024-02-14T02:43:35;28.35;;;15.32;;
30948;SDS011;17637;51.984;21.208;2024-02-14T02:46:10;26.40;;;15.93;;
30948;SDS011;17637;51.984;21.208;2024-02-14T02:48:42;33.63;;;20.80;;
30948;SDS011;17637;51.984;21.208;2024-02-14T02:51:17;48.47;;;28.02;;
30948;SDS011;17637;51.984;21.208;2024-02-14T02:53:49;48.88;;;29.27;;
30948;SDS011;17637;51.984;21.208;2024-02-14T02:56:21;63.97;;;37.90;;
30948;SDS011;17637;51.984;21.208;2024-02-14T02:58:54;80.63;;;48.42;;
30948;SDS011;17637;51.984;21.208;2024-02-14T03:01:34;79.03;;;44.40;;
30948;SDS011;17637;51.984;21.208;2024-02-14T03:04:09;72.67;;;40.87;;
30948;SDS011;17637;51.984;21.208;2024-02-14T03:06:41;55.28;;;34.28;;
30948;SDS011;17637;51.984;21.208;2024-02-14T03:09:14;66.97;;;38.35;;
30948;SDS011;17637;51.984;21.208;2024-02-14T03:11:46;55.15;;;33.85;;
30948;SDS011;17637;51.984;21.208;2024-02-14T03:14:22;45.50;;;25.30;;
30948;SDS011;17637;51.984;21.208;2024-02-14T03:16:54;48.00;;;25.10;;
30948;SDS011;17637;51.984;21.208;2024-02-14T03:19:27;40.47;;;23.45;;
30948;SDS011;17637;51.984;21.208;2024-02-14T03:22:00;39.88;;;22.50;;
30948;SDS011;17637;51.984;21.208;2024-02-14T03:24:31;40.03;;;21.58;;
30948;SDS011;17637;51.984;21.208;2024-02-14T03:27:07;34.65;;;19.42;;
30948;SDS011;17637;51.984;21.208;2024-02-14T03:29:39;38.47;;;19.63;;
30948;SDS011;17637;51.984;21.208;2024-02-14T03:32:10;33.53;;;17.67;;
30948;SDS011;17637;51.984;21.208;2024-02-14T03:34:42;31.40;;;17.58;;
30948;SDS011;17637;51.984;21.208;2024-02-14T03:37:14;33.15;;;17.05;;
30948;SDS011;17637;51.984;21.208;2024-02-14T03:39:46;38.47;;;20.98;;
30948;SDS011;17637;51.984;21.208;2024-02-14T03:42:18;35.45;;;20.23;;
30948;SDS011;17637;51.984;21.208;2024-02-14T03:44:51;40.67;;;22.50;;
30948;SDS011;17637;51.984;21.208;2024-02-14T03:47:23;42.10;;;22.50;;
30948;SDS011;17637;51.984;21.208;2024-02-14T03:49:54;31.63;;;18.88;;
30948;SDS011;17637;51.984;21.208;2024-02-14T03:52:26;30.02;;;19.10;;
30948;SDS011;17637;51.984;21.208;2024-02-14T03:54:59;38.20;;;23.67;;
30948;SDS011;17637;51.984;21.208;2024-02-14T03:57:31;66.10;;;40.97;;
30948;SDS011;17637;51.984;21.208;2024-02-14T04:00:04;54.03;;;33.88;;
30948;SDS011;17637;51.984;21.208;2024-02-14T04:02:40;49.08;;;26.70;;
30948;SDS011;17637;51.984;21.208;2024-02-14T04:05:12;48.00;;;28.23;;
30948;SDS011;17637;51.984;21.208;2024-02-14T04:07:44;67.47;;;37.08;;
30948;SDS011;17637;51.984;21.208;2024-02-14T04:10:20;59.00;;;32.78;;
30948;SDS011;17637;51.984;21.208;2024-02-14T04:12:52;62.08;;;34.65;;
30948;SDS011;17637;51.984;21.208;2024-02-14T04:15:24;48.33;;;29.02;;
30948;SDS011;17637;51.984;21.208;2024-02-14T04:17:56;46.95;;;26.48;;
30948;SDS011;17637;51.984;21.208;2024-02-14T04:20:28;38.58;;;22.52;;
30948;SDS011;17637;51.984;21.208;2024-02-14T04:23:00;40.90;;;25.25;;
30948;SDS011;17637;51.984;21.208;2024-02-14T04:25:32;40.67;;;25.33;;
30948;SDS011;17637;51.984;21.208;2024-02-14T04:28:05;38.95;;;24.63;;
30948;SDS011;17637;51.984;21.208;2024-02-14T04:30:37;33.13;;;21.30;;
30948;SDS011;17637;51.984;21.208;2024-02-14T04:33:09;25.23;;;16.50;;
30948;SDS011;17637;51.984;21.208;2024-02-14T04:35:44;32.25;;;17.70;;
30948;SDS011;17637;51.984;21.208;2024-02-14T04:38:16;40.55;;;21.50;;
30948;SDS011;17637;51.984;21.208;2024-02-14T04:40:51;80.95;;;34.78;;
30948;SDS011;17637;51.984;21.208;2024-02-14T04:43:24;61.25;;;28.13;;
30948;SDS011;17637;51.984;21.208;2024-02-14T04:45:58;39.17;;;20.88;;
30948;SDS011;17637;51.984;21.208;2024-02-14T04:48:30;36.63;;;19.83;;
30948;SDS011;17637;51.984;21.208;2024-02-14T04:51:02;31.35;;;17.98;;
30948;SDS011;17637;51.984;21.208;2024-02-14T04:53:36;24.35;;;14.85;;
30948;SDS011;17637;51.984;21.208;2024-02-14T04:56:07;25.35;;;15.27;;
30948;SDS011;17637;51.984;21.208;2024-02-14T04:58:39;23.17;;;14.05;;
30948;SDS011;17637;51.984;21.208;2024-02-14T05:01:11;22.27;;;13.38;;
30948;SDS011;17637;51.984;21.208;2024-02-14T05:03:43;29.45;;;15.63;;
30948;SDS011;17637;51.984;21.208;2024-02-14T05:06:15;40.90;;;20.92;;
30948;SDS011;17637;51.984;21.208;2024-02-14T05:08:47;39.53;;;20.98;;
30948;SDS011;17637;51.984;21.208;2024-02-14T05:11:19;25.48;;;16.38;;
30948;SDS011;17637;51.984;21.208;2024-02-14T05:13:51;25.45;;;16.00;;
30948;SDS011;17637;51.984;21.208;2024-02-14T05:16:23;26.90;;;16.88;;
30948;SDS011;17637;51.984;21.208;2024-02-14T05:18:55;23.80;;;14.40;;
30948;SDS011;17637;51.984;21.208;2024-02-14T05:21:27;22.02;;;13.98;;
30948;SDS011;17637;51.984;21.208;2024-02-14T05:23:59;22.20;;;14.95;;
30948;SDS011;17637;51.984;21.208;2024-02-14T05:26:31;24.10;;;14.70;;
30948;SDS011;17637;51.984;21.208;2024-02-14T05:29:03;24.83;;;14.32;;
30948;SDS011;17637;51.984;21.208;2024-02-14T05:31:45;25.00;;;14.70;;
30948;SDS011;17637;51.984;21.208;2024-02-14T05:34:18;34.72;;;19.98;;
30948;SDS011;17637;51.984;21.208;2024-02-14T05:36:50;38.20;;;20.70;;
30948;SDS011;17637;51.984;21.208;2024-02-14T05:39:23;33.33;;;18.75;;
30948;SDS011;17637;51.984;21.208;2024-02-14T05:41:55;32.05;;;18.75;;
30948;SDS011;17637;51.984;21.208;2024-02-14T05:44:27;35.95;;;18.80;;
30948;SDS011;17637;51.984;21.208;2024-02-14T05:47:01;37.33;;;22.35;;
30948;SDS011;17637;51.984;21.208;2024-02-14T05:49:33;38.03;;;21.65;;
30948;SDS011;17637;51.984;21.208;2024-02-14T05:52:08;32.42;;;19.58;;
30948;SDS011;17637;51.984;21.208;2024-02-14T05:54:40;29.75;;;17.58;;
30948;SDS011;17637;51.984;21.208;2024-02-14T05:57:12;33.30;;;19.00;;
30948;SDS011;17637;51.984;21.208;2024-02-14T05:59:44;35.22;;;21.48;;
30948;SDS011;17637;51.984;21.208;2024-02-14T06:02:16;35.67;;;20.67;;
30948;SDS011;17637;51.984;21.208;2024-02-14T06:04:48;32.33;;;20.98;;
30948;SDS011;17637;51.984;21.208;2024-02-14T06:07:19;32.60;;;20.73;;
30948;SDS011;17637;51.984;21.208;2024-02-14T06:09:51;32.30;;;21.00;;
30948;SDS011;17637;51.984;21.208;2024-02-14T06:12:23;38.97;;;20.85;;
30948;SDS011;17637;51.984;21.208;2024-02-14T06:14:55;40.67;;;22.52;;
30948;SDS011;17637;51.984;21.208;2024-02-14T06:17:27;40.25;;;21.13;;
30948;SDS011;17637;51.984;21.208;2024-02-14T06:19:59;42.10;;;23.45;;
30948;SDS011;17637;51.984;21.208;2024-02-14T06:22:37;44.88;;;24.40;;
30948;SDS011;17637;51.984;21.208;2024-02-14T06:25:20;46.28;;;23.27;;
30948;SDS011;17637;51.984;21.208;2024-02-14T06:27:52;51.30;;;25.02;;
30948;SDS011;17637;51.984;21.208;2024-02-14T06:30:25;78.57;;;33.53;;
30948;SDS011;17637;51.984;21.208;2024-02-14T06:33:02;82.80;;;35.03;;
30948;SDS011;17637;51.984;21.208;2024-02-14T06:35:34;136.57;;;53.22;;
30948;SDS011;17637;51.984;21.208;2024-02-14T06:38:07;117.07;;;45.33;;
30948;SDS011;17637;51.984;21.208;2024-02-14T06:40:39;98.30;;;42.65;;
30948;SDS011;17637;51.984;21.208;2024-02-14T06:43:11;95.43;;;39.90;;
30948;SDS011;17637;51.984;21.208;2024-02-14T06:45:44;107.63;;;45.25;;
30948;SDS011;17637;51.984;21.208;2024-02-14T06:48:15;97.43;;;40.25;;
30948;SDS011;17637;51.984;21.208;2024-02-14T06:50:47;88.43;;;38.05;;
30948;SDS011;17637;51.984;21.208;2024-02-14T06:53:19;67.15;;;30.25;;
30948;SDS011;17637;51.984;21.208;2024-02-14T06:55:51;47.90;;;24.15;;
30948;SDS011;17637;51.984;21.208;2024-02-14T06:58:23;53.42;;;24.48;;
30948;SDS011;17637;51.984;21.208;2024-02-14T07:00:55;44.45;;;23.92;;
30948;SDS011;17637;51.984;21.208;2024-02-14T07:03:26;42.35;;;22.65;;
30948;SDS011;17637;51.984;21.208;2024-02-14T07:05:59;37.40;;;21.42;;
30948;SDS011;17637;51.984;21.208;2024-02-14T07:08:31;35.47;;;18.38;;
30948;SDS011;17637;51.984;21.208;2024-02-14T07:11:03;36.22;;;20.10;;
30948;SDS011;17637;51.984;21.208;2024-02-14T07:13:35;31.95;;;18.45;;
30948;SDS011;17637;51.984;21.208;2024-02-14T07:16:07;37.33;;;18.13;;
30948;SDS011;17637;51.984;21.208;2024-02-14T07:18:42;39.35;;;23.40;;
30948;SDS011;17637;51.984;21.208;2024-02-14T07:21:14;39.75;;;21.88;;
30948;SDS011;17637;51.984;21.208;2024-02-14T07:23:46;34.53;;;18.70;;
30948;SDS011;17637;51.984;21.208;2024-02-14T07:26:18;31.02;;;18.25;;
30948;SDS011;17637;51.984;21.208;2024-02-14T07:28:50;29.98;;;19.17;;
30948;SDS011;17637;51.984;21.208;2024-02-14T07:31:23;31.33;;;17.48;;
30948;SDS011;17637;51.984;21.208;2024-02-14T07:33:55;27.50;;;17.08;;
30948;SDS011;17637;51.984;21.208;2024-02-14T07:36:27;27.67;;;16.17;;
30948;SDS011;17637;51.984;21.208;2024-02-14T07:38:59;30.30;;;17.90;;
30948;SDS011;17637;51.984;21.208;2024-02-14T07:41:31;30.48;;;17.45;;
30948;SDS011;17637;51.984;21.208;2024-02-14T07:44:03;26.98;;;16.77;;
30948;SDS011;17637;51.984;21.208;2024-02-14T07:46:35;23.23;;;15.70;;
30948;SDS011;17637;51.984;21.208;2024-02-14T07:49:07;23.60;;;14.93;;
30948;SDS011;17637;51.984;21.208;2024-02-14T07:51:40;26.80;;;16.42;;
30948;SDS011;17637;51.984;21.208;2024-02-14T07:54:13;25.30;;;15.90;;
30948;SDS011;17637;51.984;21.208;2024-02-14T07:56:45;28.13;;;16.17;;
30948;SDS011;17637;51.984;21.208;2024-02-14T07:59:17;23.90;;;13.93;;
30948;SDS011;17637;51.984;21.208;2024-02-14T08:01:49;22.80;;;14.23;;
30948;SDS011;17637;51.984;21.208;2024-02-14T08:04:20;26.00;;;14.45;;
30948;SDS011;17637;51.984;21.208;2024-02-14T08:06:52;20.40;;;13.68;;
30948;SDS011;17637;51.984;21.208;2024-02-14T08:09:24;21.73;;;12.95;;
30948;SDS011;17637;51.984;21.208;2024-02-14T08:11:56;20.08;;;12.40;;
30948;SDS011;17637;51.984;21.208;2024-02-14T08:14:28;23.08;;;14.70;;
30948;SDS011;17637;51.984;21.208;2024-02-14T08:17:00;27.35;;;15.27;;
30948;SDS011;17637;51.984;21.208;2024-02-14T08:19:32;22.95;;;12.98;;
30948;SDS011;17637;51.984;21.208;2024-02-14T08:22:04;22.95;;;13.38;;
30948;SDS011;17637;51.984;21.208;2024-02-14T08:24:37;20.85;;;12.68;;
30948;SDS011;17637;51.984;21.208;2024-02-14T08:27:09;23.27;;;13.05;;
30948;SDS011;17637;51.984;21.208;2024-02-14T08:29:41;23.13;;;12.82;;
30948;SDS011;17637;51.984;21.208;2024-02-14T08:32:16;21.48;;;11.63;;
30948;SDS011;17637;51.984;21.208;2024-02-14T08:34:48;20.13;;;11.90;;
30948;SDS011;17637;51.984;21.208;2024-02-14T08:37:22;18.13;;;11.38;;
30948;SDS011;17637;51.984;21.208;2024-02-14T08:39:56;17.55;;;10.82;;
30948;SDS011;17637;51.984;21.208;2024-02-14T08:42:28;17.05;;;10.45;;
30948;SDS011;17637;51.984;21.208;2024-02-14T08:45:00;16.77;;;11.05;;
30948;SDS011;17637;51.984;21.208;2024-02-14T08:47:33;14.45;;;10.30;;
30948;SDS011;17637;51.984;21.208;2024-02-14T08:50:05;14.85;;;9.00;;
30948;SDS011;17637;51.984;21.208;2024-02-14T08:52:37;13.70;;;8.90;;
30948;SDS011;17637;51.984;21.208;2024-02-14T08:55:09;16.05;;;9.50;;
30948;SDS011;17637;51.984;21.208;2024-02-14T08:57:49;20.20;;;9.10;;
30948;SDS011;17637;51.984;21.208;2024-02-14T09:00:21;13.90;;;7.72;;
30948;SDS011;17637;51.984;21.208;2024-02-14T09:02:53;14.93;;;7.70;;
30948;SDS011;17637;51.984;21.208;2024-02-14T09:05:26;11.35;;;7.40;;
30948;SDS011;17637;51.984;21.208;2024-02-14T09:08:01;11.50;;;7.40;;
30948;SDS011;17637;51.984;21.208;2024-02-14T09:10:33;14.68;;;7.32;;
30948;SDS011;17637;51.984;21.208;2024-02-14T09:13:05;10.82;;;6.90;;
30948;SDS011;17637;51.984;21.208;2024-02-14T09:15:41;10.38;;;6.15;;
30948;SDS011;17637;51.984;21.208;2024-02-14T09:18:14;11.55;;;6.85;;
30948;SDS011;17637;51.984;21.208;2024-02-14T09:20:48;10.05;;;5.72;;
30948;SDS011;17637;51.984;21.208;2024-02-14T09:23:22;8.43;;;5.40;;
30948;SDS011;17637;51.984;21.208;2024-02-14T09:25:54;10.55;;;4.78;;
30948;SDS011;17637;51.984;21.208;2024-02-14T09:28:26;12.25;;;5.63;;
30948;SDS011;17637;51.984;21.208;2024-02-14T09:30:58;8.13;;;4.53;;
30948;SDS011;17637;51.984;21.208;2024-02-14T09:33:29;10.00;;;4.95;;
30948;SDS011;17637;51.984;21.208;2024-02-14T09:36:02;7.88;;;5.05;;
30948;SDS011;17637;51.984;21.208;2024-02-14T09:38:34;14.00;;;5.97;;
30948;SDS011;17637;51.984;21.208;2024-02-14T09:41:19;8.75;;;4.90;;
30948;SDS011;17637;51.984;21.208;2024-02-14T09:43:58;11.27;;;4.80;;
30948;SDS011;17637;51.984;21.208;2024-02-14T09:46:29;9.15;;;5.35;;
30948;SDS011;17637;51.984;21.208;2024-02-14T09:49:02;8.88;;;5.40;;
30948;SDS011;17637;51.984;21.208;2024-02-14T09:51:35;11.57;;;5.68;;
30948;SDS011;17637;51.984;21.208;2024-02-14T09:54:09;10.65;;;5.53;;
30948;SDS011;17637;51.984;21.208;2024-02-14T09:56:45;9.32;;;5.68;;
30948;SDS011;17637;51.984;21.208;2024-02-14T09:59:22;8.57;;;4.90;;
30948;SDS011;17637;51.984;21.208;2024-02-14T10:01:55;8.25;;;4.65;;
30948;SDS011;17637;51.984;21.208;2024-02-14T10:04:26;9.88;;;4.95;;
30948;SDS011;17637;51.984;21.208;2024-02-14T10:06:58;9.70;;;4.43;;
30948;SDS011;17637;51.984;21.208;2024-02-14T10:09:30;5.97;;;3.80;;
30948;SDS011;17637;51.984;21.208;2024-02-14T10:12:11;5.63;;;3.67;;
30948;SDS011;17637;51.984;21.208;2024-02-14T10:14:43;8.00;;;3.90;;
30948;SDS011;17637;51.984;21.208;2024-02-14T10:17:18;4.88;;;3.53;;
30948;SDS011;17637;51.984;21.208;2024-02-14T10:22:37;7.30;;;3.40;;
30948;SDS011;17637;51.984;21.208;2024-02-14T10:25:10;7.68;;;2.72;;
30948;SDS011;17637;51.984;21.208;2024-02-14T10:27:42;8.60;;;3.72;;
30948;SDS011;17637;51.984;21.208;2024-02-14T10:30:14;7.80;;;3.58;;
30948;SDS011;17637;51.984;21.208;2024-02-14T10:32:46;6.20;;;3.50;;
30948;SDS011;17637;51.984;21.208;2024-02-14T10:35:21;6.85;;;3.50;;
30948;SDS011;17637;51.984;21.208;2024-02-14T10:37:54;7.25;;;3.60;;
30948;SDS011;17637;51.984;21.208;2024-02-14T10:40:32;7.32;;;4.00;;
30948;SDS011;17637;51.984;21.208;2024-02-14T10:43:06;6.25;;;3.33;;
30948;SDS011;17637;51.984;21.208;2024-02-14T10:45:41;6.82;;;3.88;;
30948;SDS011;17637;51.984;21.208;2024-02-14T10:48:13;8.00;;;3.85;;
30948;SDS011;17637;51.984;21.208;2024-02-14T10:50:47;7.60;;;3.50;;
30948;SDS011;17637;51.984;21.208;2024-02-14T10:53:21;6.75;;;3.38;;
30948;SDS011;17637;51.984;21.208;2024-02-14T10:55:57;7.68;;;3.88;;
30948;SDS011;17637;51.984;21.208;2024-02-14T10:58:30;8.07;;;3.60;;
30948;SDS011;17637;51.984;21.208;2024-02-14T11:01:04;6.63;;;3.42;;
30948;SDS011;17637;51.984;21.208;2024-02-14T11:03:39;8.13;;;3.58;;
30948;SDS011;17637;51.984;21.208;2024-02-14T11:06:15;6.82;;;4.00;;
30948;SDS011;17637;51.984;21.208;2024-02-14T11:08:58;7.30;;;3.90;;
30948;SDS011;17637;51.984;21.208;2024-02-14T11:11:33;9.70;;;4.00;;
30948;SDS011;17637;51.984;21.208;2024-02-14T11:14:06;8.60;;;3.80;;
30948;SDS011;17637;51.984;21.208;2024-02-14T11:16:38;6.22;;;3.60;;
30948;SDS011;17637;51.984;21.208;2024-02-14T11:19:10;7.18;;;3.30;;
30948;SDS011;17637;51.984;21.208;2024-02-14T11:21:47;7.03;;;3.42;;
30948;SDS011;17637;51.984;21.208;2024-02-14T11:24:20;6.57;;;3.65;;
30948;SDS011;17637;51.984;21.208;2024-02-14T11:27:01;5.50;;;3.20;;
30948;SDS011;17637;51.984;21.208;2024-02-14T11:29:34;6.07;;;3.05;;
30948;SDS011;17637;51.984;21.208;2024-02-14T11:32:05;4.47;;;3.00;;
30948;SDS011;17637;51.984;21.208;2024-02-14T11:34:40;5.78;;;2.90;;
30948;SDS011;17637;51.984;21.208;2024-02-14T11:37:18;7.30;;;3.38;;
30948;SDS011;17637;51.984;21.208;2024-02-14T11:39:52;7.90;;;3.35;;
30948;SDS011;17637;51.984;21.208;2024-02-14T11:42:24;6.05;;;3.35;;
30948;SDS011;17637;51.984;21.208;2024-02-14T11:44:57;5.85;;;3.17;;
30948;SDS011;17637;51.984;21.208;2024-02-14T11:47:29;4.78;;;3.10;;
30948;SDS011;17637;51.984;21.208;2024-02-14T11:50:01;5.20;;;3.05;;
30948;SDS011;17637;51.984;21.208;2024-02-14T11:52:34;6.13;;;3.00;;
30948;SDS011;17637;51.984;21.208;2024-02-14T11:55:06;6.25;;;3.10;;
30948;SDS011;17637;51.984;21.208;2024-02-14T11:57:38;4.95;;;2.88;;
30948;SDS011;17637;51.984;21.208;2024-02-14T12:00:11;7.60;;;3.40;;
30948;SDS011;17637;51.984;21.208;2024-02-14T12:02:43;7.18;;;3.53;;
30948;SDS011;17637;51.984;21.208;2024-02-14T12:05:16;5.80;;;3.45;;
30948;SDS011;17637;51.984;21.208;2024-02-14T12:07:49;4.75;;;2.92;;
30948;SDS011;17637;51.984;21.208;2024-02-14T12:10:21;6.50;;;3.42;;
30948;SDS011;17637;51.984;21.208;2024-02-14T12:12:53;10.98;;;4.35;;
30948;SDS011;17637;51.984;21.208;2024-02-14T12:15:26;7.70;;;3.80;;
30948;SDS011;17637;51.984;21.208;2024-02-14T12:17:58;9.55;;;4.28;;
30948;SDS011;17637;51.984;21.208;2024-02-14T12:20:30;6.65;;;3.08;;
30948;SDS011;17637;51.984;21.208;2024-02-14T12:23:02;7.78;;;3.58;;
30948;SDS011;17637;51.984;21.208;2024-02-14T12:25:34;5.65;;;3.33;;
30948;SDS011;17637;51.984;21.208;2024-02-14T12:28:06;7.43;;;3.60;;
30948;SDS011;17637;51.984;21.208;2024-02-14T12:30:42;6.70;;;3.90;;
30948;SDS011;17637;51.984;21.208;2024-02-14T12:33:17;9.13;;;3.70;;
30948;SDS011;17637;51.984;21.208;2024-02-14T12:35:50;8.73;;;3.85;;
30948;SDS011;17637;51.984;21.208;2024-02-14T12:38:23;6.28;;;3.22;;
30948;SDS011;17637;51.984;21.208;2024-02-14T12:40:54;5.60;;;2.80;;
30948;SDS011;17637;51.984;21.208;2024-02-14T12:43:27;7.70;;;3.47;;
30948;SDS011;17637;51.984;21.208;2024-02-14T12:45:58;5.72;;;3.03;;
30948;SDS011;17637;51.984;21.208;2024-02-14T12:48:30;6.00;;;2.53;;
30948;SDS011;17637;51.984;21.208;2024-02-14T12:51:02;6.45;;;3.08;;
30948;SDS011;17637;51.984;21.208;2024-02-14T12:53:34;7.32;;;2.83;;
30948;SDS011;17637;51.984;21.208;2024-02-14T12:56:09;6.30;;;3.50;;
30948;SDS011;17637;51.984;21.208;2024-02-14T12:58:41;7.63;;;2.95;;
30948;SDS011;17637;51.984;21.208;2024-02-14T13:01:14;5.47;;;3.20;;
30948;SDS011;17637;51.984;21.208;2024-02-14T13:03:46;4.93;;;2.95;;
30948;SDS011;17637;51.984;21.208;2024-02-14T13:06:18;6.35;;;2.63;;
30948;SDS011;17637;51.984;21.208;2024-02-14T13:08:50;14.60;;;3.05;;
30948;SDS011;17637;51.984;21.208;2024-02-14T13:11:22;11.43;;;3.50;;
30948;SDS011;17637;51.984;21.208;2024-02-14T13:13:54;6.07;;;3.42;;
30948;SDS011;17637;51.984;21.208;2024-02-14T13:16:26;15.40;;;8.23;;
30948;SDS011;17637;51.984;21.208;2024-02-14T13:18:58;12.15;;;6.90;;
30948;SDS011;17637;51.984;21.208;2024-02-14T13:21:30;7.20;;;3.17;;
30948;SDS011;17637;51.984;21.208;2024-02-14T13:24:02;5.90;;;2.97;;
30948;SDS011;17637;51.984;21.208;2024-02-14T13:26:35;4.70;;;2.60;;
30948;SDS011;17637;51.984;21.208;2024-02-14T13:29:07;5.82;;;2.90;;
30948;SDS011;17637;51.984;21.208;2024-02-14T13:31:39;5.38;;;2.80;;
30948;SDS011;17637;51.984;21.208;2024-02-14T13:34:11;5.53;;;3.28;;
30948;SDS011;17637;51.984;21.208;2024-02-14T13:36:43;5.68;;;2.75;;
30948;SDS011;17637;51.984;21.208;2024-02-14T13:39:15;3.95;;;2.33;;
30948;SDS011;17637;51.984;21.208;2024-02-14T13:41:47;4.25;;;2.50;;
30948;SDS011;17637;51.984;21.208;2024-02-14T13:44:19;3.83;;;2.55;;
30948;SDS011;17637;51.984;21.208;2024-02-14T13:46:51;6.30;;;2.92;;
30948;SDS011;17637;51.984;21.208;2024-02-14T13:49:24;3.42;;;2.38;;
30948;SDS011;17637;51.984;21.208;2024-02-14T13:51:56;4.32;;;2.58;;
30948;SDS011;17637;51.984;21.208;2024-02-14T13:54:29;5.85;;;2.78;;
30948;SDS011;17637;51.984;21.208;2024-02-14T13:57:01;5.57;;;3.00;;
30948;SDS011;17637;51.984;21.208;2024-02-14T13:59:34;4.22;;;2.85;;
30948;SDS011;17637;51.984;21.208;2024-02-14T14:02:06;9.30;;;3.83;;
30948;SDS011;17637;51.984;21.208;2024-02-14T14:04:38;5.53;;;3.10;;
30948;SDS011;17637;51.984;21.208;2024-02-14T14:07:10;5.40;;;3.10;;
30948;SDS011;17637;51.984;21.208;2024-02-14T14:09:42;6.43;;;2.83;;
30948;SDS011;17637;51.984;21.208;2024-02-14T14:12:13;6.78;;;2.92;;
30948;SDS011;17637;51.984;21.208;2024-02-14T14:14:45;3.90;;;2.47;;
30948;SDS011;17637;51.984;21.208;2024-02-14T14:17:18;4.53;;;3.08;;
30948;SDS011;17637;51.984;21.208;2024-02-14T14:19:50;6.60;;;2.60;;
30948;SDS011;17637;51.984;21.208;2024-02-14T14:22:22;5.43;;;2.75;;
30948;SDS011;17637;51.984;21.208;2024-02-14T14:24:54;4.20;;;2.42;;
30948;SDS011;17637;51.984;21.208;2024-02-14T14:27:28;6.00;;;2.33;;
30948;SDS011;17637;51.984;21.208;2024-02-14T14:29:59;3.53;;;2.20;;
30948;SDS011;17637;51.984;21.208;2024-02-14T14:32:32;5.53;;;2.63;;
30948;SDS011;17637;51.984;21.208;2024-02-14T14:35:04;5.68;;;2.92;;
30948;SDS011;17637;51.984;21.208;2024-02-14T14:37:35;6.50;;;3.20;;
30948;SDS011;17637;51.984;21.208;2024-02-14T14:40:08;10.65;;;6.15;;
30948;SDS011;17637;51.984;21.208;2024-02-14T14:42:42;10.98;;;5.75;;
30948;SDS011;17637;51.984;21.208;2024-02-14T14:45:13;8.90;;;4.25;;
30948;SDS011;17637;51.984;21.208;2024-02-14T14:47:45;8.02;;;4.68;;
30948;SDS011;17637;51.984;21.208;2024-02-14T14:50:17;7.32;;;3.83;;
30948;SDS011;17637;51.984;21.208;2024-02-14T14:52:51;6.07;;;2.95;;
30948;SDS011;17637;51.984;21.208;2024-02-14T14:55:24;6.53;;;4.18;;